Time;durP1;ratioP1;P1;durP2;ratioP2;P2;SDS_P1;SDS_P2;PMS_P1;PMS_P2;Temp;Humidity;BMP_temperature;BMP_pressure;BME280_temperature;BME280_humidity;BME280_pressure;Samples;Min_cycle;Max_cycle;Signal;HPM_P1;HPM_P2
2022/05/26 00:01:33;;;;;;;1.80;1.40;;;12.90;99.90;;;;;;5048434;28;21003;-73
2022/05/26 00:04:01;;;;;;;3.07;1.37;;;12.90;99.90;;;;;;5048684;28;20846;-72
2022/05/26 00:06:29;;;;;;;2.00;1.33;;;12.90;99.90;;;;;;5047514;28;20486;-72
2022/05/26 00:08:57;;;;;;;1.40;1.23;;;12.90;99.90;;;;;;5047884;28;20491;-73
2022/05/26 00:11:28;;;;;;;1.77;1.37;;;12.80;99.90;;;;;;5048314;28;20459;-73
2022/05/26 00:13:55;;;;;;;2.13;1.30;;;12.80;99.90;;;;;;5047953;28;20513;-73
2022/05/26 00:16:22;;;;;;;1.50;1.40;;;12.80;99.90;;;;;;5047740;28;20467;-73
2022/05/26 00:18:49;;;;;;;1.97;1.40;;;12.80;99.90;;;;;;5047395;28;20475;-72
2022/05/26 00:21:18;;;;;;;1.43;1.20;;;12.70;99.90;;;;;;5047306;28;20463;-72
2022/05/26 00:23:45;;;;;;;1.63;1.30;;;12.70;99.90;;;;;;5047769;28;20982;-72
2022/05/26 00:26:12;;;;;;;6.90;2.20;;;12.70;99.90;;;;;;5047300;28;20483;-72
2022/05/26 00:28:39;;;;;;;1.87;1.10;;;12.70;99.90;;;;;;5046766;28;20459;-73
2022/05/26 00:31:05;;;;;;;6.00;3.50;;;12.70;99.90;;;;;;5047231;28;20471;-72
2022/05/26 00:33:32;;;;;;;2.47;1.83;;;12.80;99.90;;;;;;5047421;28;20486;-73
2022/05/26 00:36:04;;;;;;;1.20;1.00;;;12.80;99.90;;;;;;5047029;28;20455;-73
2022/05/26 00:38:32;;;;;;;1.50;1.30;;;12.90;99.90;;;;;;5046933;28;20463;-71
2022/05/26 00:41:03;;;;;;;1.37;1.27;;;13.00;99.90;;;;;;5047031;28;20808;-72
2022/05/26 00:43:30;;;;;;;1.60;1.43;;;13.00;99.90;;;;;;5048335;28;20846;-72
2022/05/26 00:46:00;;;;;;;1.87;1.13;;;13.10;99.90;;;;;;5046779;28;20486;-72
2022/05/26 00:48:35;;;;;;;2.20;1.07;;;13.10;99.90;;;;;;5050512;28;20463;-73
2022/05/26 00:51:03;;;;;;;2.00;1.20;;;13.20;99.90;;;;;;5051148;28;20470;-73
2022/05/26 00:53:38;;;;;;;3.53;1.30;;;13.20;99.90;;;;;;5051013;28;20479;-72
2022/05/26 00:56:12;;;;;;;2.27;1.23;;;13.20;99.90;;;;;;5051215;28;20946;-73
2022/05/26 00:58:42;;;;;;;1.97;1.20;;;13.30;99.90;;;;;;5050807;28;20454;-72
2022/05/26 01:01:09;;;;;;;1.80;1.10;;;13.30;99.90;;;;;;5051489;28;20486;-73
2022/05/26 01:03:42;;;;;;;1.90;1.13;;;13.40;99.90;;;;;;5051461;28;20896;-73
2022/05/26 01:06:12;;;;;;;2.40;1.20;;;13.40;99.90;;;;;;5050385;28;20490;-72
2022/05/26 01:08:47;;;;;;;1.83;1.10;;;13.40;99.90;;;;;;5050980;28;20816;-73
2022/05/26 01:11:14;;;;;;;1.47;1.30;;;13.40;99.90;;;;;;5050836;28;20966;-71
2022/05/26 01:13:45;;;;;;;1.33;1.07;;;13.40;99.90;;;;;;5050745;28;20487;-72
2022/05/26 01:16:21;;;;;;;1.17;1.07;;;13.40;99.90;;;;;;5050893;28;20455;-73
2022/05/26 01:18:56;;;;;;;4.20;1.30;;;13.40;99.90;;;;;;5049806;28;20905;-73
2022/05/26 01:21:28;;;;;;;3.13;1.37;;;13.30;99.90;;;;;;5050854;28;20466;-72
2022/05/26 01:24:32;;;;;;;1.83;1.73;;;13.40;99.90;;;;;;5050712;28;20460;-71
2022/05/26 01:27:19;;;;;;;1.20;1.10;;;13.40;99.90;;;;;;5050111;28;20479;-73
2022/05/26 01:30:19;;;;;;;1.80;1.37;;;13.40;99.90;;;;;;5050205;28;20471;-74
2022/05/26 01:33:12;;;;;;;1.97;1.37;;;13.40;99.90;;;;;;5051067;28;20475;-72
2022/05/26 01:35:45;;;;;;;2.20;1.57;;;13.40;99.90;;;;;;5051043;28;20463;-73
2022/05/26 01:38:23;;;;;;;1.80;1.00;;;13.40;99.90;;;;;;5051119;28;20463;-73
2022/05/26 01:40:55;;;;;;;2.40;1.20;;;13.40;99.90;;;;;;5051044;28;20977;-75
2022/05/26 01:43:29;;;;;;;1.50;1.13;;;13.40;99.90;;;;;;5050385;28;20483;-74
2022/05/26 01:46:00;;;;;;;1.93;1.40;;;13.30;99.90;;;;;;5051066;28;20479;-73
2022/05/26 01:48:34;;;;;;;1.47;1.33;;;13.30;99.90;;;;;;5050112;28;20460;-74
2022/05/26 01:51:05;;;;;;;1.87;1.17;;;13.20;99.90;;;;;;5050346;28;20486;-74
2022/05/26 01:53:44;;;;;;;3.10;1.60;;;13.10;99.90;;;;;;5050287;28;20515;-73
2022/05/26 01:56:17;;;;;;;1.33;1.23;;;13.00;99.90;;;;;;5050269;28;20470;-74
2022/05/26 01:58:48;;;;;;;1.70;1.10;;;12.90;99.90;;;;;;5049544;28;20456;-74
2022/05/26 02:01:18;;;;;;;1.73;1.33;;;12.80;99.90;;;;;;5050722;28;20467;-74
2022/05/26 02:03:49;;;;;;;1.50;1.13;;;12.70;99.90;;;;;;5050182;28;20475;-74
2022/05/26 02:06:20;;;;;;;2.67;1.07;;;12.60;99.90;;;;;;5050373;28;21361;-73
2022/05/26 02:08:53;;;;;;;1.23;1.13;;;12.50;99.90;;;;;;5049796;28;20463;-74
2022/05/26 02:11:22;;;;;;;2.03;1.33;;;12.40;99.90;;;;;;5049595;28;20852;-74
2022/05/26 02:13:53;;;;;;;1.20;1.10;;;12.40;99.90;;;;;;5050247;28;20483;-74
2022/05/26 02:16:24;;;;;;;2.27;1.30;;;12.30;99.90;;;;;;5049985;28;20470;-74
2022/05/26 02:18:55;;;;;;;1.60;1.07;;;12.30;99.90;;;;;;5049286;28;20463;-74
2022/05/26 02:21:30;;;;;;;1.23;1.10;;;12.20;99.90;;;;;;5049921;28;20474;-74
2022/05/26 02:24:03;;;;;;;1.30;1.20;;;12.20;99.90;;;;;;5049659;28;20572;-74
2022/05/26 02:26:31;;;;;;;2.10;1.27;;;12.10;99.90;;;;;;5049921;28;20588;-73
2022/05/26 02:31:42;;;;;;;1.47;1.23;;;12.00;99.90;;;;;;5028789;28;20470;-73
2022/05/26 02:34:13;;;;;;;4.33;1.33;;;12.00;99.90;;;;;;5049339;28;20470;-73
2022/05/26 02:36:41;;;;;;;2.40;1.27;;;12.00;99.90;;;;;;5050365;28;20470;-73
2022/05/26 02:39:08;;;;;;;1.85;1.65;;;12.00;99.90;;;;;;5049345;28;20459;-73
2022/05/26 02:41:35;;;;;;;2.00;1.40;;;12.00;99.90;;;;;;5049850;28;20205;-74
2022/05/26 02:44:04;;;;;;;1.50;1.27;;;12.00;99.90;;;;;;5049855;28;20466;-73
2022/05/26 02:46:45;;;;;;;2.30;1.13;;;12.00;99.90;;;;;;5050085;28;20233;-74
2022/05/26 02:49:28;;;;;;;2.23;1.30;;;11.90;99.90;;;;;;5048972;28;20463;-74
2022/05/26 02:52:04;;;;;;;3.03;1.33;;;11.90;99.90;;;;;;5049609;28;20509;-74
2022/05/26 02:54:41;;;;;;;1.65;1.10;;;11.80;99.90;;;;;;5050649;28;20832;-74
2022/05/26 02:57:16;;;;;;;1.58;1.10;;;11.80;99.90;;;;;;5049353;28;20270;-72
2022/05/26 02:59:50;;;;;;;2.17;1.20;;;11.80;99.90;;;;;;5049613;28;20220;-73
2022/05/26 03:02:23;;;;;;;1.33;1.07;;;11.80;99.90;;;;;;5049072;28;20490;-73
2022/05/26 03:05:01;;;;;;;1.75;1.20;;;11.80;99.90;;;;;;5049319;28;20459;-73
2022/05/26 03:07:31;;;;;;;1.55;1.45;;;11.80;99.90;;;;;;5049538;28;20232;-73
2022/05/26 03:10:00;;;;;;;1.25;1.00;;;11.70;99.90;;;;;;5048858;28;20205;-73
2022/05/26 03:12:30;;;;;;;1.73;1.37;;;11.60;99.90;;;;;;5049359;28;20229;-73
2022/05/26 03:14:57;;;;;;;3.47;1.30;;;11.60;99.90;;;;;;5049499;28;20856;-73
2022/05/26 03:17:24;;;;;;;1.30;1.20;;;11.60;99.90;;;;;;5049991;28;20464;-73
2022/05/26 03:19:53;;;;;;;1.40;1.10;;;11.60;99.90;;;;;;5049519;28;20464;-73
2022/05/26 03:22:20;;;;;;;1.50;1.40;;;11.50;99.90;;;;;;5049067;28;20837;-73
2022/05/26 03:24:47;;;;;;;2.70;1.70;;;11.50;99.90;;;;;;5049435;28;20207;-73
2022/05/26 03:27:14;;;;;;;2.10;1.40;;;11.40;99.90;;;;;;5048419;28;20253;-73
2022/05/26 03:29:41;;;;;;;1.30;1.17;;;11.40;99.90;;;;;;5048955;28;20216;-72
2022/05/26 03:32:08;;;;;;;1.30;1.20;;;11.30;99.90;;;;;;5049023;28;20221;-73
2022/05/26 03:42:51;;;;;;;3.80;1.17;;;11.30;99.90;;;;;;5051923;28;20331;-73
2022/05/26 03:45:20;;;;;;;1.67;1.58;;;11.40;99.90;;;;;;5052361;28;20209;-73
2022/05/26 03:47:46;;;;;;;2.22;1.40;;;11.40;99.90;;;;;;5052364;28;20228;-73
2022/05/26 03:50:14;;;;;;;1.95;1.40;;;11.40;99.90;;;;;;5052015;28;20771;-73
2022/05/26 03:52:42;;;;;;;1.50;1.30;;;11.40;99.90;;;;;;5052318;28;20282;-73
2022/05/26 03:55:09;;;;;;;2.25;1.40;;;11.40;99.90;;;;;;5052134;28;20574;-73
2022/05/26 03:57:36;;;;;;;1.73;1.33;;;11.40;99.90;;;;;;5052291;28;20220;-71
2022/05/26 04:00:04;;;;;;;2.20;1.33;;;11.40;99.90;;;;;;5051864;28;20463;-73
2022/05/26 04:02:31;;;;;;;1.25;1.10;;;11.50;99.90;;;;;;5051914;28;20225;-73
2022/05/26 04:04:59;;;;;;;2.30;1.40;;;11.50;99.90;;;;;;5052264;28;20587;-72
2022/05/26 04:07:26;;;;;;;1.60;1.15;;;11.60;99.90;;;;;;5051589;28;20494;-73
2022/05/26 04:09:54;;;;;;;3.88;1.83;;;11.60;99.90;;;;;;5051613;28;20476;-73
2022/05/26 04:12:20;;;;;;;5.45;1.30;;;11.50;99.90;;;;;;5051917;28;20225;-73
2022/05/26 04:14:47;;;;;;;2.00;1.38;;;11.60;99.90;;;;;;5051988;28;20197;-71
2022/05/26 04:17:14;;;;;;;4.07;1.65;;;11.60;99.90;;;;;;5051606;28;20208;-73
2022/05/26 04:19:41;;;;;;;1.50;1.10;;;11.70;99.90;;;;;;5051735;28;20204;-73
2022/05/26 04:22:18;;;;;;;2.40;1.30;;;11.70;99.90;;;;;;5051552;28;20529;-72
2022/05/26 04:24:47;;;;;;;1.85;1.23;;;11.70;99.90;;;;;;5051781;28;20521;-73
2022/05/26 04:27:16;;;;;;;1.93;1.57;;;11.70;99.90;;;;;;5051380;28;20241;-73
2022/05/26 04:29:43;;;;;;;1.70;1.37;;;11.80;99.90;;;;;;5051284;28;20467;-73
2022/05/26 04:32:10;;;;;;;1.70;1.30;;;11.80;99.90;;;;;;5050969;28;20990;-73
2022/05/26 04:34:38;;;;;;;1.87;1.67;;;11.80;99.90;;;;;;5051882;28;20455;-73
2022/05/26 04:37:05;;;;;;;1.53;1.43;;;11.80;99.90;;;;;;5051547;28;20482;-73
2022/05/26 04:39:32;;;;;;;1.43;1.17;;;11.90;99.90;;;;;;5050546;28;20959;-73
2022/05/26 04:41:59;;;;;;;2.97;1.33;;;12.00;99.90;;;;;;5051699;28;20489;-73
2022/05/26 04:44:31;;;;;;;1.67;1.10;;;12.00;99.90;;;;;;5051426;28;20495;-73
2022/05/26 04:46:58;;;;;;;1.60;1.10;;;12.00;99.90;;;;;;5051155;28;20487;-73
2022/05/26 04:49:25;;;;;;;1.60;1.23;;;12.10;99.90;;;;;;5050788;28;20938;-73
2022/05/26 04:51:52;;;;;;;1.40;1.30;;;12.10;99.90;;;;;;5051184;28;20483;-72
2022/05/26 04:54:18;;;;;;;1.50;1.25;;;12.10;99.90;;;;;;5050021;28;21356;-73
2022/05/26 04:56:45;;;;;;;2.30;0.97;;;12.20;99.90;;;;;;5051367;28;20212;-73
2022/05/26 04:59:12;;;;;;;1.73;0.97;;;12.20;99.90;;;;;;5051513;28;20459;-73
2022/05/26 05:01:41;;;;;;;1.90;1.33;;;12.30;99.90;;;;;;5052121;28;20459;-74
2022/05/26 05:04:08;;;;;;;3.00;1.60;;;12.40;99.90;;;;;;5052048;28;20530;-73
2022/05/26 05:06:35;;;;;;;1.20;1.07;;;12.50;99.90;;;;;;5051476;28;21011;-73
2022/05/26 05:09:02;;;;;;;1.53;1.17;;;12.60;99.90;;;;;;5050077;28;20866;-73
2022/05/26 05:11:29;;;;;;;1.60;1.37;;;12.60;99.90;;;;;;5050853;28;20463;-74
2022/05/26 05:13:56;;;;;;;2.73;1.17;;;12.70;99.90;;;;;;5050794;28;20459;-74
2022/05/26 05:16:27;;;;;;;2.43;1.30;;;12.70;99.90;;;;;;5050646;28;20966;-73
2022/05/26 05:18:56;;;;;;;2.20;1.17;;;12.80;99.90;;;;;;5050228;28;20466;-74
2022/05/26 05:21:28;;;;;;;2.60;1.30;;;12.90;99.90;;;;;;5050505;28;20467;-74
2022/05/26 05:24:00;;;;;;;1.80;1.40;;;12.90;99.90;;;;;;5050696;28;20459;-74
2022/05/26 05:26:31;;;;;;;2.33;1.27;;;13.00;99.90;;;;;;5050560;28;20832;-73
2022/05/26 05:29:03;;;;;;;1.53;1.10;;;13.10;99.90;;;;;;5049887;28;20494;-74
2022/05/26 05:31:34;;;;;;;2.47;1.57;;;13.20;99.90;;;;;;5050119;28;20551;-74
2022/05/26 05:34:06;;;;;;;1.60;1.20;;;13.30;99.90;;;;;;5050552;28;20553;-74
2022/05/26 05:36:35;;;;;;;1.20;1.10;;;13.40;99.90;;;;;;5050608;28;20463;-73
2022/05/26 05:39:04;;;;;;;1.47;1.23;;;13.50;99.90;;;;;;5049282;28;20467;-73
2022/05/26 05:41:33;;;;;;;1.20;1.10;;;13.50;99.90;;;;;;5050545;28;20464;-73
2022/05/26 05:44:01;;;;;;;1.73;1.27;;;13.60;99.90;;;;;;5049963;28;20459;-73
2022/05/26 05:46:34;;;;;;;2.30;1.30;;;13.70;99.90;;;;;;5049680;28;20892;-73
2022/05/26 05:49:04;;;;;;;1.27;1.00;;;13.80;99.90;;;;;;5048859;28;20524;-73
2022/05/26 05:51:32;;;;;;;1.30;1.17;;;13.80;99.90;;;;;;5047581;28;20479;-73
2022/05/26 05:53:59;;;;;;;3.10;1.20;;;14.00;99.90;;;;;;5049587;28;20564;-73
2022/05/26 05:56:26;;;;;;;1.90;1.70;;;14.00;99.90;;;;;;5049553;28;20464;-72
2022/05/26 05:58:53;;;;;;;2.40;1.30;;;14.10;99.90;;;;;;5049978;28;20521;-73
2022/05/26 06:01:20;;;;;;;1.40;1.27;;;14.20;99.90;;;;;;5049734;28;20467;-73
2022/05/26 06:03:47;;;;;;;3.03;1.90;;;14.30;99.90;;;;;;5049838;28;20483;-73
2022/05/26 06:06:15;;;;;;;1.80;1.17;;;14.50;99.90;;;;;;5049471;28;20506;-73
2022/05/26 06:08:42;;;;;;;2.77;1.27;;;14.60;99.90;;;;;;5049322;28;20494;-73
2022/05/26 06:11:09;;;;;;;2.17;1.17;;;14.70;99.90;;;;;;5049776;28;20977;-73
2022/05/26 06:13:35;;;;;;;2.40;1.40;;;14.80;99.90;;;;;;5049940;28;20488;-73
2022/05/26 06:16:02;;;;;;;1.50;1.17;;;14.80;99.90;;;;;;5049211;28;20842;-73
2022/05/26 06:18:29;;;;;;;1.93;1.30;;;14.90;99.90;;;;;;5049030;28;20474;-73
2022/05/26 06:21:02;;;;;;;1.50;1.03;;;15.00;99.90;;;;;;5049750;28;20463;-73
2022/05/26 06:23:30;;;;;;;1.67;1.13;;;15.00;99.90;;;;;;5049545;28;20479;-73
2022/05/26 06:25:57;;;;;;;1.30;1.10;;;14.90;99.90;;;;;;5049443;28;20471;-72
2022/05/26 06:31:08;;;;;;;2.17;0.90;;;15.00;99.90;;;;;;5049248;28;20819;-73
2022/05/26 06:39:06;;;;;;;1.70;1.30;;;15.00;99.90;;;;;;5051694;28;20430;-72
2022/05/26 06:44:18;;;;;;;2.13;1.53;;;15.10;99.90;;;;;;5050378;28;20501;-73
2022/05/26 06:46:45;;;;;;;2.57;1.13;;;15.10;99.90;;;;;;5050010;28;20463;-73
2022/05/26 06:49:12;;;;;;;2.63;1.40;;;15.20;99.90;;;;;;5047923;28;20462;-74
2022/05/26 06:51:41;;;;;;;2.80;1.27;;;15.30;99.90;;;;;;5049442;28;20197;-73
2022/05/26 06:54:10;;;;;;;1.30;1.20;;;15.40;99.90;;;;;;5048595;28;20495;-73
2022/05/26 06:56:37;;;;;;;3.50;1.07;;;15.50;99.90;;;;;;5049682;28;20466;-72
2022/05/26 06:59:05;;;;;;;1.77;1.20;;;15.50;99.90;;;;;;5048724;28;20463;-73
2022/05/26 07:01:32;;;;;;;1.50;1.07;;;15.70;99.90;;;;;;5049146;28;20904;-74
2022/05/26 07:03:59;;;;;;;2.37;1.20;;;15.70;99.90;;;;;;5050457;28;20828;-74
2022/05/26 07:06:28;;;;;;;1.63;1.10;;;15.80;99.90;;;;;;5048685;28;20875;-73
2022/05/26 07:08:55;;;;;;;1.60;1.23;;;15.90;99.90;;;;;;5048620;28;20490;-75
2022/05/26 07:11:23;;;;;;;1.60;1.20;;;15.90;99.90;;;;;;5049106;28;20463;-74
2022/05/26 07:13:50;;;;;;;1.37;1.20;;;15.90;99.90;;;;;;5049027;28;20847;-75
2022/05/26 07:16:17;;;;;;;2.30;1.20;;;16.00;99.90;;;;;;5049528;28;20463;-76
2022/05/26 07:18:44;;;;;;;1.40;1.10;;;16.00;99.90;;;;;;5053740;28;21002;-76
2022/05/26 07:21:12;;;;;;;2.60;1.43;;;16.10;99.90;;;;;;5054727;28;20550;-76
2022/05/26 07:23:39;;;;;;;3.00;1.10;;;16.20;99.90;;;;;;5054377;28;20483;-76
2022/05/26 07:26:07;;;;;;;2.57;1.20;;;16.30;99.90;;;;;;5054970;28;20470;-76
2022/05/26 07:28:36;;;;;;;2.80;1.10;;;16.30;99.90;;;;;;5054079;28;20498;-76
2022/05/26 07:31:03;;;;;;;2.03;1.13;;;16.30;99.90;;;;;;5034507;28;20456;-76
2022/05/26 07:33:30;;;;;;;3.63;2.10;;;16.30;99.90;;;;;;5034362;28;20990;-75
2022/05/26 07:35:56;;;;;;;1.23;0.93;;;16.30;99.90;;;;;;5033895;28;20460;-74
2022/05/26 07:41:18;;;;;;;1.20;0.80;;;16.50;99.90;;;;;;5033000;28;20456;-73
2022/05/26 07:43:52;;;;;;;2.17;1.10;;;16.60;99.90;;;;;;5033934;28;20491;-75
2022/05/26 07:46:20;;;;;;;3.23;1.00;;;16.60;99.90;;;;;;5034195;28;20460;-76
2022/05/26 07:48:47;;;;;;;1.90;1.10;;;16.60;99.90;;;;;;5033386;28;20832;-75
2022/05/26 07:51:15;;;;;;;3.20;1.13;;;16.70;99.50;;;;;;5032999;28;20462;-74
2022/05/26 07:53:42;;;;;;;2.90;1.27;;;16.70;98.90;;;;;;5032794;28;20518;-74
2022/05/26 07:56:12;;;;;;;1.97;1.10;;;16.80;99.30;;;;;;5032427;28;20952;-74
2022/05/26 07:58:39;;;;;;;6.10;1.33;;;16.90;99.30;;;;;;5032708;28;20460;-75
2022/05/26 08:01:08;;;;;;;1.40;1.10;;;17.10;99.80;;;;;;5031408;28;20467;-75
2022/05/26 08:03:36;;;;;;;2.27;1.10;;;17.20;99.80;;;;;;5032442;28;20549;-74
2022/05/26 08:06:04;;;;;;;2.00;1.20;;;17.30;99.80;;;;;;5032807;28;20456;-74
2022/05/26 08:08:31;;;;;;;1.97;1.20;;;17.40;99.00;;;;;;5031788;28;20491;-76
2022/05/26 08:10:58;;;;;;;1.27;1.00;;;17.40;99.10;;;;;;5030338;28;20479;-75
2022/05/26 08:13:25;;;;;;;1.50;1.00;;;17.40;99.40;;;;;;5030411;28;20861;-75
2022/05/26 08:15:53;;;;;;;3.73;1.30;;;17.40;98.30;;;;;;5027508;28;20464;-75
2022/05/26 08:18:21;;;;;;;2.37;1.30;;;17.40;98.90;;;;;;5111614;22;21148;-73
2022/05/26 08:20:48;;;;;;;3.17;1.33;;;17.50;99.00;;;;;;5070009;28;20451;-73
2022/05/26 08:23:15;;;;;;;2.03;1.13;;;17.50;98.80;;;;;;5056551;28;20482;-72
2022/05/26 08:25:42;;;;;;;1.97;1.30;;;17.50;98.80;;;;;;5069641;28;20455;-73
2022/05/26 08:28:09;;;;;;;5.67;1.13;;;17.50;98.90;;;;;;5056447;28;21006;-73
2022/05/26 08:30:36;;;;;;;2.40;1.50;;;17.60;99.30;;;;;;5050387;28;20773;-73
2022/05/26 08:33:03;;;;;;;2.73;1.40;;;17.60;99.20;;;;;;5049766;28;20486;-73
2022/05/26 08:35:31;;;;;;;1.90;1.17;;;17.70;99.20;;;;;;5069136;28;20459;-72
2022/05/26 08:37:58;;;;;;;1.60;1.10;;;17.70;99.00;;;;;;5068891;28;20488;-72
2022/05/26 08:40:41;;;;;;;2.03;1.20;;;17.70;99.00;;;;;;5067783;28;20459;-72
2022/05/26 08:43:25;;;;;;;1.30;1.20;;;17.70;98.90;;;;;;5059617;28;20479;-73
2022/05/26 08:45:55;;;;;;;1.53;1.10;;;17.60;98.90;;;;;;5052285;28;20466;-73
2022/05/26 08:48:38;;;;;;;1.47;1.10;;;17.40;98.70;;;;;;5048512;28;21034;-73
2022/05/26 08:51:14;;;;;;;2.07;1.13;;;17.40;98.70;;;;;;5065601;28;20463;-73
2022/05/26 08:53:42;;;;;;;2.90;1.10;;;17.40;99.70;;;;;;5060973;28;20471;-74
2022/05/26 08:56:12;;;;;;;1.47;1.00;;;17.50;99.10;;;;;;5048554;28;20463;-74
2022/05/26 08:58:46;;;;;;;1.70;1.00;;;17.70;99.10;;;;;;5050371;28;20455;-74
2022/05/26 09:01:17;;;;;;;4.93;1.23;;;17.70;99.20;;;;;;5063086;28;20500;-73
2022/05/26 09:03:46;;;;;;;6.63;1.50;;;17.80;99.20;;;;;;5067567;28;20478;-73
2022/05/26 09:06:16;;;;;;;1.90;1.13;;;17.70;98.70;;;;;;5068148;28;20822;-74
2022/05/26 09:14:24;;;;;;;2.67;1.20;;;17.60;98.50;;;;;;5068252;28;20926;-74
2022/05/26 09:16:57;;;;;;;2.17;1.20;;;17.60;98.50;;;;;;5068059;28;20837;-74
2022/05/26 09:19:24;;;;;;;2.07;1.10;;;17.60;99.00;;;;;;5053404;28;20470;-74
2022/05/26 09:21:52;;;;;;;1.60;1.00;;;17.70;98.80;;;;;;5066397;28;20575;-73
2022/05/26 09:24:24;;;;;;;1.33;1.10;;;17.80;98.90;;;;;;5050521;28;20845;-74
2022/05/26 09:26:58;;;;;;;1.47;1.03;;;18.00;98.50;;;;;;5069267;28;20467;-74
2022/05/26 09:29:27;;;;;;;1.27;1.17;;;18.10;98.70;;;;;;5067107;28;20575;-74
2022/05/26 09:31:57;;;;;;;1.77;1.00;;;18.30;98.30;;;;;;5067291;28;20475;-74
2022/05/26 09:34:25;;;;;;;1.77;1.40;;;18.40;98.20;;;;;;5057893;28;21060;-74
2022/05/26 09:37:07;;;;;;;3.53;1.03;;;18.30;98.00;;;;;;5048586;28;20485;-74
2022/05/26 09:39:45;;;;;;;1.23;1.10;;;18.30;97.80;;;;;;5049487;28;20465;-75
2022/05/26 09:42:27;;;;;;;1.80;1.30;;;18.20;98.60;;;;;;5069858;28;20473;-74
2022/05/26 09:44:57;;;;;;;2.70;1.27;;;18.00;97.90;;;;;;5068389;28;20461;-74
2022/05/26 09:47:34;;;;;;;2.50;1.53;;;17.80;98.00;;;;;;5061711;28;20549;-73
2022/05/26 09:50:06;;;;;;;2.00;1.40;;;17.70;98.40;;;;;;5069261;28;20481;-74
2022/05/26 09:52:56;;;;;;;2.40;1.40;;;17.60;98.90;;;;;;5066774;28;20581;-74
2022/05/26 09:55:41;;;;;;;1.70;1.10;;;17.50;98.60;;;;;;5051715;28;20527;-74
2022/05/26 09:58:11;;;;;;;1.30;1.00;;;17.50;98.90;;;;;;5066095;28;20866;-74
2022/05/26 10:00:40;;;;;;;1.87;1.30;;;17.60;98.80;;;;;;5066206;28;20491;-74
2022/05/26 10:03:15;;;;;;;1.77;1.10;;;17.50;99.20;;;;;;5067410;28;20482;-74
2022/05/26 10:05:53;;;;;;;1.83;1.30;;;17.50;99.10;;;;;;5067803;28;20458;-74
2022/05/26 10:08:28;;;;;;;3.03;1.43;;;17.60;98.90;;;;;;5066242;28;20776;-74
2022/05/26 10:11:00;;;;;;;2.80;1.30;;;17.70;99.20;;;;;;5067850;28;20454;-74
2022/05/26 10:13:40;;;;;;;1.30;1.10;;;17.80;99.30;;;;;;5067075;28;20602;-74
2022/05/26 10:16:13;;;;;;;1.53;1.33;;;17.80;98.40;;;;;;5051785;28;20451;-74
2022/05/26 10:19:09;;;;;;;1.93;1.10;;;17.80;99.20;;;;;;5064717;28;20471;-74
2022/05/26 10:22:11;;;;;;;1.20;1.00;;;17.70;98.60;;;;;;5065242;28;20494;-74
2022/05/26 10:25:04;;;;;;;3.10;1.37;;;17.60;98.30;;;;;;5058590;28;20511;-74
2022/05/26 10:27:49;;;;;;;1.40;1.20;;;17.60;98.80;;;;;;5067151;28;20862;-74
2022/05/26 10:30:25;;;;;;;1.20;1.10;;;17.50;98.90;;;;;;5064171;28;20479;-74
2022/05/26 10:33:10;;;;;;;2.27;1.60;;;17.60;99.20;;;;;;5047240;28;20929;-74
2022/05/26 10:36:09;;;;;;;2.60;1.20;;;17.70;99.90;;;;;;5048962;28;20489;-74
2022/05/26 10:38:54;;;;;;;1.43;1.10;;;17.90;99.40;;;;;;5066119;28;20827;-74
2022/05/26 10:41:32;;;;;;;1.20;1.00;;;18.00;99.20;;;;;;5066584;28;20446;-74
2022/05/26 10:44:11;;;;;;;2.83;0.90;;;18.00;98.50;;;;;;5050082;28;20546;-74
2022/05/26 10:46:41;;;;;;;2.30;1.30;;;18.00;98.60;;;;;;5067381;28;20462;-74
2022/05/26 10:49:17;;;;;;;3.10;1.30;;;17.90;98.40;;;;;;5066912;28;20474;-75
2022/05/26 10:51:50;;;;;;;1.90;1.10;;;17.80;98.60;;;;;;5070723;28;20461;-74
2022/05/26 10:54:24;;;;;;;1.97;1.40;;;17.80;99.20;;;;;;5071285;28;20469;-74
2022/05/26 10:56:59;;;;;;;2.47;1.03;;;17.70;99.20;;;;;;5069354;28;21844;-74
2022/05/26 10:59:32;;;;;;;1.40;1.20;;;17.60;99.10;;;;;;5070012;28;20457;-74
2022/05/26 11:02:03;;;;;;;2.53;1.60;;;17.60;99.60;;;;;;5071095;28;20482;-74
2022/05/26 11:04:48;;;;;;;1.70;1.17;;;17.60;99.90;;;;;;5069711;28;20465;-74
2022/05/26 11:07:21;;;;;;;2.00;1.30;;;17.50;99.90;;;;;;5053311;28;20746;-74
2022/05/26 11:09:55;;;;;;;1.83;1.10;;;17.50;99.70;;;;;;5070531;28;20497;-73
2022/05/26 11:12:30;;;;;;;2.17;1.20;;;17.50;99.90;;;;;;5053364;28;20474;-73
2022/05/26 11:17:49;;;;;;;3.00;1.30;;;17.50;99.90;;;;;;5069151;28;21014;-73
2022/05/26 11:20:21;;;;;;;1.93;1.37;;;17.60;99.90;;;;;;5070522;28;20451;-73
2022/05/26 11:22:49;;;;;;;1.50;1.07;;;17.60;99.90;;;;;;5071180;28;20539;-73
2022/05/26 11:25:20;;;;;;;2.50;1.00;;;17.60;99.90;;;;;;5056580;28;20466;-73
2022/05/26 11:27:52;;;;;;;2.50;1.30;;;17.60;99.90;;;;;;5052973;28;20463;-73
2022/05/26 11:36:09;;;;;;;1.23;1.13;;;17.50;99.90;;;;;;5053296;28;20490;-73
2022/05/26 11:38:41;;;;;;;1.30;1.10;;;17.60;99.90;;;;;;5052099;28;20470;-73
2022/05/26 11:41:09;;;;;;;1.60;1.40;;;17.60;99.50;;;;;;5052810;28;20962;-73
2022/05/26 11:43:44;;;;;;;2.37;1.40;;;17.60;99.70;;;;;;5052544;28;20487;-74
2022/05/26 11:46:13;;;;;;;1.93;1.40;;;17.70;99.60;;;;;;5067053;28;20462;-74
2022/05/26 11:48:46;;;;;;;3.17;1.33;;;17.70;99.60;;;;;;5066430;28;21241;-74
2022/05/26 11:51:43;;;;;;;2.40;1.70;;;17.70;99.30;;;;;;5067783;28;21022;-73
2022/05/26 11:54:12;;;;;;;2.23;1.50;;;17.90;99.30;;;;;;5027523;28;20545;-73
2022/05/26 11:56:48;;;;;;;2.37;1.20;;;18.00;99.90;;;;;;5059239;28;20462;-73
2022/05/26 11:59:45;;;;;;;1.83;1.10;;;18.00;99.40;;;;;;5069035;28;20450;-73
2022/05/26 12:02:28;;;;;;;1.90;1.30;;;18.00;99.70;;;;;;5064946;28;20486;-73
2022/05/26 12:04:55;;;;;;;3.27;1.13;;;18.10;99.90;;;;;;5069089;28;20465;-73
2022/05/26 12:07:37;;;;;;;3.10;1.37;;;18.20;99.40;;;;;;5068895;28;20822;-74
2022/05/26 12:10:18;;;;;;;1.70;1.60;;;18.20;99.80;;;;;;5068112;28;20747;-73
2022/05/26 12:12:45;;;;;;;1.37;1.27;;;18.30;98.90;;;;;;5068748;28;20515;-73
2022/05/26 12:15:18;;;;;;;3.60;1.50;;;18.30;99.80;;;;;;5069608;28;20539;-73
2022/05/26 12:17:50;;;;;;;1.20;1.10;;;18.30;99.10;;;;;;5067556;28;20449;-72
2022/05/26 12:20:33;;;;;;;3.80;1.30;;;18.10;98.80;;;;;;5069200;28;20454;-73
2022/05/26 12:23:24;;;;;;;1.40;1.30;;;17.90;98.90;;;;;;5069733;28;21047;-73
2022/05/26 12:26:28;;;;;;;1.80;1.07;;;17.80;99.20;;;;;;5069869;28;20455;-73
2022/05/26 12:28:55;;;;;;;3.00;1.20;;;17.80;99.50;;;;;;5069178;28;20494;-73
2022/05/26 12:31:22;;;;;;;1.40;1.30;;;17.80;99.80;;;;;;5068771;28;20561;-73
2022/05/26 12:34:18;;;;;;;2.50;1.20;;;17.80;99.90;;;;;;5068466;28;20486;-73
2022/05/26 12:36:58;;;;;;;1.97;1.37;;;17.80;99.90;;;;;;5069150;28;20458;-72
2022/05/26 12:39:45;;;;;;;1.50;1.40;;;18.00;99.90;;;;;;5068847;28;20466;-73
2022/05/26 12:42:22;;;;;;;1.90;1.30;;;18.00;99.90;;;;;;5055478;28;20491;-73
2022/05/26 12:45:03;;;;;;;2.43;1.20;;;18.20;99.90;;;;;;5052081;28;20465;-73
2022/05/26 12:47:55;;;;;;;1.93;1.13;;;18.40;99.90;;;;;;5057153;28;20863;-73
2022/05/26 12:50:25;;;;;;;1.83;1.33;;;18.70;99.90;;;;;;5066229;28;20489;-73
2022/05/26 12:53:06;;;;;;;1.20;1.10;;;18.90;99.70;;;;;;5060749;28;20479;-73
2022/05/26 12:55:38;;;;;;;1.53;1.30;;;19.10;98.60;;;;;;5048966;28;20853;-73
2022/05/26 12:58:09;;;;;;;2.10;1.30;;;19.20;99.90;;;;;;5050919;28;20495;-73
2022/05/26 13:00:37;;;;;;;2.17;1.50;;;19.40;99.90;;;;;;5052305;28;20487;-73
2022/05/26 13:03:07;;;;;;;2.67;1.27;;;19.40;98.80;;;;;;5051686;28;20487;-73
2022/05/26 13:05:44;;;;;;;1.97;1.50;;;19.70;98.70;;;;;;5052184;28;20471;-73
2022/05/26 13:08:16;;;;;;;1.73;1.30;;;19.90;99.10;;;;;;5050535;28;20463;-73
2022/05/26 13:10:44;;;;;;;1.17;1.03;;;20.00;98.30;;;;;;5052169;28;20993;-73
2022/05/26 13:13:20;;;;;;;2.27;1.20;;;19.90;98.60;;;;;;5057252;28;20482;-74
2022/05/26 13:15:48;;;;;;;1.60;1.20;;;19.80;97.90;;;;;;5069058;28;20512;-74
2022/05/26 13:18:20;;;;;;;3.23;1.10;;;19.50;97.70;;;;;;5068453;28;20546;-74
2022/05/26 13:20:49;;;;;;;1.47;1.13;;;19.40;97.40;;;;;;5069359;28;20473;-74
2022/05/26 13:23:27;;;;;;;1.73;1.27;;;19.30;97.90;;;;;;5068869;28;20494;-74
2022/05/26 13:25:54;;;;;;;1.63;1.10;;;19.10;98.30;;;;;;5067005;28;20486;-74
2022/05/26 13:28:27;;;;;;;2.23;1.50;;;19.10;98.70;;;;;;5068696;28;20796;-74
2022/05/26 13:33:42;;;;;;;2.20;1.27;;;19.00;98.70;;;;;;5069092;28;20458;-73
2022/05/26 13:36:17;;;;;;;1.97;1.47;;;18.90;98.50;;;;;;5068228;28;20455;-74
2022/05/26 13:38:47;;;;;;;1.57;1.20;;;18.80;99.10;;;;;;5050983;28;20491;-74
2022/05/26 13:41:18;;;;;;;1.90;1.30;;;18.80;98.80;;;;;;5056280;28;20502;-73
2022/05/26 13:43:47;;;;;;;1.47;1.37;;;18.80;98.90;;;;;;5067915;28;20861;-74
2022/05/26 13:46:22;;;;;;;2.47;1.40;;;18.80;99.00;;;;;;5064681;28;20469;-74
2022/05/26 13:48:54;;;;;;;2.20;1.30;;;18.80;99.00;;;;;;5057207;28;20485;-73
2022/05/26 13:51:27;;;;;;;2.13;1.50;;;18.80;99.40;;;;;;5065869;28;20490;-73
2022/05/26 13:54:13;;;;;;;1.57;1.07;;;18.80;98.80;;;;;;5047620;28;20480;-73